Time,TemperatureF,DewpointF,PressureIn,WindDirection,WindDirectionDegrees,WindSpeedMPH,WindSpeedGustMPH,Humidity,HourlyPrecipIn,Conditions,Clouds,dailyrainin,SoftwareType,DateUTC
2013-02-16 00:02:00,23.0,15.0,30.14,West,270,3.0,5.0,70,0.00,,,0.00,,2013-02-16 05:02:00,
2013-02-16 00:12:00,23.0,15.0,30.14,West,270,3.0,5.0,70,0.00,,,0.00,,2013-02-16 05:12:00,
2013-02-16 00:22:00,23.0,15.0,30.14,WNW,291,2.0,5.0,71,0.00,,,0.00,,2013-02-16 05:22:00,
2013-02-16 00:32:00,23.0,16.0,30.13,WSW,249,0.0,1.0,75,0.00,,,0.00,,2013-02-16 05:32:00,
2013-02-16 00:42:00,23.0,16.0,30.13,WSW,249,0.0,1.0,75,0.00,,,0.00,,2013-02-16 05:42:00,
2013-02-16 00:52:00,23.0,16.0,30.13,WSW,249,0.0,1.0,75,0.00,,,0.00,,2013-02-16 05:52:00,
2013-02-16 01:02:00,21.0,14.0,30.13,WSW,253,0.0,1.0,73,0.00,,,0.00,,2013-02-16 06:02:00,
2013-02-16 01:11:00,21.0,14.0,30.13,WSW,253,0.0,1.0,73,0.00,,,0.00,,2013-02-16 06:11:00,
2013-02-16 01:22:00,21.0,15.0,30.13,WSW,248,0.0,1.0,78,0.00,,,0.00,,2013-02-16 06:22:00,
2013-02-16 01:32:00,21.0,14.0,30.12,WSW,248,0.0,0.0,75,0.00,,,0.00,,2013-02-16 06:32:00,
2013-02-16 01:42:00,21.0,14.0,30.12,WSW,248,0.0,0.0,75,0.00,,,0.00,,2013-02-16 06:42:00,
2013-02-16 01:52:00,22.0,16.0,30.12,WSW,248,0.0,0.0,77,0.00,,,0.00,,2013-02-16 06:52:00,
2013-02-16 02:02:00,19.0,14.0,30.12,WSW,248,0.0,1.0,80,0.00,,,0.00,,2013-02-16 07:02:00,
2013-02-16 02:11:00,19.0,14.0,30.12,WSW,248,0.0,1.0,80,0.00,,,0.00,,2013-02-16 07:11:00,
2013-02-16 02:21:00,20.0,17.0,30.12,WSW,248,0.0,0.0,87,0.00,,,0.00,,2013-02-16 07:21:00,
2013-02-16 02:32:00,21.0,18.0,30.12,WSW,246,0.0,0.0,87,0.00,,,0.00,,2013-02-16 07:32:00,
2013-02-16 02:42:00,21.0,18.0,30.12,WSW,246,0.0,0.0,87,0.00,,,0.00,,2013-02-16 07:42:00,
2013-02-16 02:52:00,19.0,14.0,30.11,WSW,246,0.0,0.0,81,0.00,,,0.00,,2013-02-16 07:52:00,
2013-02-16 03:01:00,20.0,16.0,30.11,WSW,246,0.0,0.0,86,0.00,,,0.00,,2013-02-16 08:01:00,
2013-02-16 03:11:00,20.0,16.0,30.11,WSW,246,0.0,0.0,86,0.00,,,0.00,,2013-02-16 08:11:00,
2013-02-16 03:21:00,19.0,15.0,30.11,SSW,205,0.0,0.0,83,0.00,,,0.00,,2013-02-16 08:21:00,
2013-02-16 03:32:00,21.0,18.0,30.11,SSW,205,0.0,0.0,89,0.00,,,0.00,,2013-02-16 08:32:00,
2013-02-16 03:42:00,21.0,18.0,30.11,SSW,205,0.0,0.0,89,0.00,,,0.00,,2013-02-16 08:42:00,
2013-02-16 03:52:00,20.0,15.0,30.10,SSW,205,0.0,0.0,82,0.00,,,0.00,,2013-02-16 08:52:00,
2013-02-16 04:02:00,20.0,16.0,30.09,SSW,205,0.0,0.0,84,0.00,,,0.00,,2013-02-16 09:02:00,
2013-02-16 04:11:00,20.0,16.0,30.09,SSW,205,0.0,0.0,84,0.00,,,0.00,,2013-02-16 09:11:00,
2013-02-16 04:21:00,21.0,17.0,30.09,SSW,203,0.0,0.0,85,0.00,,,0.00,,2013-02-16 09:21:00,
2013-02-16 04:32:00,21.0,16.0,30.09,SSW,203,0.0,0.0,82,0.00,,,0.00,,2013-02-16 09:32:00,
2013-02-16 04:42:00,21.0,16.0,30.09,SSW,203,0.0,0.0,82,0.00,,,0.00,,2013-02-16 09:42:00,
2013-02-16 04:51:00,22.0,18.0,30.09,SSW,203,0.0,0.0,84,0.00,,,0.00,,2013-02-16 09:51:00,
2013-02-16 05:01:00,22.0,18.0,30.08,SSW,203,0.0,0.0,84,0.00,,,0.00,,2013-02-16 10:01:00,
2013-02-16 05:11:00,22.0,18.0,30.08,SSW,203,0.0,0.0,84,0.00,,,0.00,,2013-02-16 10:11:00,
2013-02-16 05:21:00,22.0,17.0,30.08,SSW,203,0.0,0.0,82,0.00,,,0.00,,2013-02-16 10:21:00,
2013-02-16 05:32:00,21.0,16.0,30.08,WSW,250,0.0,0.0,81,0.00,,,0.00,,2013-02-16 10:32:00,
2013-02-16 05:42:00,21.0,16.0,30.08,WSW,250,0.0,0.0,81,0.00,,,0.00,,2013-02-16 10:42:00,
2013-02-16 05:52:00,23.0,19.0,30.08,WSW,250,0.0,0.0,85,0.00,,,0.00,,2013-02-16 10:52:00,
2013-02-16 06:02:00,22.0,17.0,30.08,WSW,250,0.0,0.0,80,0.00,,,0.00,,2013-02-16 11:02:00,
2013-02-16 06:11:00,22.0,17.0,30.08,WSW,250,0.0,0.0,80,0.00,,,0.00,,2013-02-16 11:11:00,
2013-02-16 06:22:00,23.0,19.0,30.08,WSW,250,0.0,0.0,85,0.00,,,0.00,,2013-02-16 11:22:00,
2013-02-16 06:32:00,23.0,19.0,30.07,WSW,250,0.0,0.0,84,0.00,,,0.00,,2013-02-16 11:32:00,
2013-02-16 06:42:00,23.0,19.0,30.07,WSW,250,0.0,0.0,84,0.00,,,0.00,,2013-02-16 11:42:00,
2013-02-16 06:52:00,24.0,20.0,30.07,WSW,250,0.0,0.0,85,0.00,,,0.00,,2013-02-16 11:52:00,
2013-02-16 07:02:00,24.0,20.0,30.07,WSW,250,0.0,0.0,86,0.00,,,0.00,,2013-02-16 12:02:00,
2013-02-16 07:12:00,24.0,20.0,30.07,WSW,250,0.0,0.0,86,0.00,,,0.00,,2013-02-16 12:12:00,
2013-02-16 07:22:00,25.0,21.0,30.06,WSW,250,0.0,0.0,84,0.00,,,0.00,,2013-02-16 12:22:00,
2013-02-16 07:32:00,22.0,17.0,30.06,WSW,250,0.0,0.0,81,0.00,,,0.00,,2013-02-16 12:32:00,
2013-02-16 07:42:00,22.0,17.0,30.06,WSW,250,0.0,0.0,81,0.00,,,0.00,,2013-02-16 12:42:00,
2013-02-16 07:52:00,21.0,17.0,30.06,WSW,250,0.0,0.0,83,0.00,,,0.00,,2013-02-16 12:52:00,
2013-02-16 08:02:00,21.0,17.0,30.06,WSW,250,0.0,0.0,84,0.00,,,0.00,,2013-02-16 13:02:00,
2013-02-16 08:12:00,21.0,17.0,30.06,WSW,250,0.0,0.0,84,0.00,,,0.00,,2013-02-16 13:12:00,
2013-02-16 08:22:00,22.0,18.0,30.06,SW,215,0.0,0.0,86,0.00,,,0.00,,2013-02-16 13:22:00,
2013-02-16 08:32:00,23.0,20.0,30.07,SSW,207,0.0,0.0,87,0.00,,,0.00,,2013-02-16 13:32:00,
2013-02-16 08:42:00,23.0,20.0,30.07,SSW,207,0.0,0.0,87,0.00,,,0.00,,2013-02-16 13:42:00,
2013-02-16 08:51:00,22.0,18.0,30.07,ESE,109,0.0,0.0,84,0.00,,,0.00,,2013-02-16 13:51:00,
2013-02-16 09:01:00,22.0,18.0,30.07,SSW,201,1.0,3.0,84,0.00,,,0.00,,2013-02-16 14:01:00,
2013-02-16 09:11:00,22.0,18.0,30.07,SSW,201,1.0,3.0,84,0.00,,,0.00,,2013-02-16 14:11:00,
2013-02-16 09:21:00,22.0,18.0,30.07,South,184,0.0,3.0,84,0.00,,,0.00,,2013-02-16 14:21:00,
2013-02-16 09:32:00,23.0,19.0,30.07,SSE,148,1.0,3.0,85,0.00,,,0.00,,2013-02-16 14:32:00,
2013-02-16 09:42:00,23.0,19.0,30.07,SSE,148,1.0,3.0,85,0.00,,,0.00,,2013-02-16 14:42:00,
2013-02-16 09:52:00,23.0,19.0,30.06,SE,139,1.0,3.0,85,0.00,,,0.00,,2013-02-16 14:52:00,
2013-02-16 10:02:00,24.0,20.0,30.06,South,185,1.0,3.0,84,0.00,,,0.00,,2013-02-16 15:02:00,
2013-02-16 10:11:00,24.0,20.0,30.06,South,185,1.0,3.0,84,0.00,,,0.00,,2013-02-16 15:11:00,
2013-02-16 10:22:00,25.0,20.0,30.05,WNW,298,1.0,4.0,82,0.00,,,0.00,,2013-02-16 15:22:00,
2013-02-16 10:32:00,24.0,18.0,30.05,SW,226,2.0,8.0,78,0.00,,,0.00,,2013-02-16 15:32:00,
2013-02-16 10:42:00,24.0,18.0,30.05,SW,226,2.0,8.0,78,0.00,,,0.00,,2013-02-16 15:42:00,
2013-02-16 10:52:00,24.0,18.0,30.05,SW,231,2.0,6.0,78,0.00,,,0.00,,2013-02-16 15:52:00,
2013-02-16 11:02:00,25.0,18.0,30.05,West,271,4.0,7.0,74,0.00,,,0.00,,2013-02-16 16:02:00,
2013-02-16 11:11:00,25.0,18.0,30.05,West,271,4.0,7.0,74,0.00,,,0.00,,2013-02-16 16:11:00,
2013-02-16 11:21:00,25.0,19.0,30.04,WSW,252,2.0,6.0,76,0.00,,,0.00,,2013-02-16 16:21:00,
2013-02-16 11:32:00,25.0,18.0,30.04,West,259,3.0,6.0,75,0.00,,,0.00,,2013-02-16 16:32:00,
2013-02-16 11:42:00,25.0,18.0,30.04,West,259,3.0,6.0,75,0.00,,,0.00,,2013-02-16 16:42:00,
2013-02-16 11:52:00,25.0,17.0,30.04,WNW,291,4.0,9.0,70,0.00,,,0.00,,2013-02-16 16:52:00,
2013-02-16 12:01:00,24.0,19.0,30.05,West,281,8.0,16.0,81,0.00,,,0.00,,2013-02-16 17:01:00,
2013-02-16 12:11:00,24.0,19.0,30.05,West,281,8.0,16.0,81,0.00,,,0.00,,2013-02-16 17:11:00,
2013-02-16 12:22:00,23.0,19.0,30.05,NW,309,7.0,11.0,84,0.00,,,0.00,,2013-02-16 17:22:00,
2013-02-16 12:32:00,23.0,18.0,30.04,NW,316,5.0,8.0,81,0.00,,,0.00,,2013-02-16 17:32:00,
2013-02-16 12:42:00,23.0,18.0,30.04,NW,316,5.0,8.0,81,0.00,,,0.00,,2013-02-16 17:42:00,
2013-02-16 12:52:00,24.0,17.0,30.04,WNW,298,4.0,10.0,74,0.00,,,0.00,,2013-02-16 17:52:00,
2013-02-16 13:02:00,25.0,17.0,30.03,WNW,298,3.0,7.0,70,0.00,,,0.00,,2013-02-16 18:02:00,
2013-02-16 13:11:00,25.0,17.0,30.03,WNW,298,3.0,7.0,70,0.00,,,0.00,,2013-02-16 18:11:00,
2013-02-16 13:21:00,25.0,17.0,30.03,WNW,298,3.0,7.0,70,0.00,,,0.00,,2013-02-16 18:21:00,
2013-02-16 13:33:00,25.0,17.0,30.02,WNW,291,4.0,9.0,71,0.00,,,0.00,,2013-02-16 18:33:00,
2013-02-16 13:42:00,25.0,17.0,30.02,WNW,291,4.0,9.0,71,0.00,,,0.00,,2013-02-16 18:42:00,
2013-02-16 13:52:00,24.0,16.0,30.02,WNW,301,3.0,8.0,72,0.00,,,0.00,,2013-02-16 18:52:00,
2013-02-16 14:02:00,24.0,17.0,30.01,WNW,298,2.0,7.0,75,0.00,,,0.00,,2013-02-16 19:02:00,
2013-02-16 14:11:00,24.0,17.0,30.01,WNW,298,2.0,7.0,75,0.00,,,0.00,,2013-02-16 19:11:00,
2013-02-16 14:22:00,24.0,16.0,30.01,West,269,2.0,6.0,71,0.00,,,0.00,,2013-02-16 19:22:00,
2013-02-16 14:32:00,25.0,15.0,30.01,WNW,288,4.0,8.0,64,0.00,,,0.00,,2013-02-16 19:32:00,
2013-02-16 14:42:00,25.0,15.0,30.01,WNW,288,4.0,8.0,64,0.00,,,0.00,,2013-02-16 19:42:00,
2013-02-16 14:52:00,25.0,15.0,30.01,WNW,288,4.0,8.0,64,0.00,,,0.00,,2013-02-16 19:52:00,
2013-02-16 15:01:00,23.0,18.0,30.01,NW,311,6.0,11.0,81,0.00,,,0.00,,2013-02-16 20:01:00,
2013-02-16 15:11:00,23.0,17.0,30.01,West,260,2.0,6.0,77,0.00,,,0.00,,2013-02-16 20:11:00,
2013-02-16 15:22:00,23.0,17.0,30.01,West,260,2.0,6.0,77,0.00,,,0.00,,2013-02-16 20:22:00,
2013-02-16 15:32:00,24.0,17.0,30.01,WNW,283,4.0,9.0,75,0.00,,,0.00,,2013-02-16 20:32:00,
2013-02-16 15:42:00,24.0,17.0,30.01,WNW,283,4.0,9.0,75,0.00,,,0.00,,2013-02-16 20:42:00,
2013-02-16 15:52:00,23.0,16.0,30.01,WNW,292,6.0,10.0,75,0.00,,,0.00,,2013-02-16 20:52:00,
2013-02-16 16:02:00,24.0,15.0,30.01,NW,309,5.0,11.0,67,0.00,,,0.00,,2013-02-16 21:02:00,
2013-02-16 16:11:00,24.0,15.0,30.01,NW,309,5.0,11.0,67,0.00,,,0.00,,2013-02-16 21:11:00,
2013-02-16 16:21:00,24.0,15.0,30.01,NW,309,5.0,11.0,67,0.00,,,0.00,,2013-02-16 21:21:00,
2013-02-16 16:32:00,24.0,13.0,30.01,WNW,295,4.0,9.0,63,0.00,,,0.00,,2013-02-16 21:32:00,
2013-02-16 16:42:00,24.0,13.0,30.01,WNW,295,4.0,9.0,63,0.00,,,0.00,,2013-02-16 21:42:00,
2013-02-16 16:52:00,24.0,13.0,30.02,West,281,6.0,12.0,62,0.00,,,0.00,,2013-02-16 21:52:00,
2013-02-16 17:01:00,24.0,13.0,30.03,NW,305,7.0,12.0,61,0.00,,,0.00,,2013-02-16 22:01:00,
2013-02-16 17:11:00,24.0,13.0,30.03,NW,305,7.0,12.0,61,0.00,,,0.00,,2013-02-16 22:11:00,
2013-02-16 17:21:00,22.0,14.0,30.03,NW,311,7.0,14.0,72,0.00,,,0.00,,2013-02-16 22:21:00,
2013-02-16 17:32:00,22.0,14.0,30.03,NW,311,7.0,14.0,72,0.00,,,0.00,,2013-02-16 22:32:00,
2013-02-16 17:42:00,22.0,14.0,30.03,NW,311,7.0,14.0,72,0.00,,,0.00,,2013-02-16 22:42:00,
2013-02-16 17:52:00,21.0,14.0,30.04,NW,321,8.0,14.0,74,0.00,,,0.00,,2013-02-16 22:52:00,
2013-02-16 18:02:00,20.0,13.0,30.05,NW,314,7.0,11.0,75,0.00,,,0.00,,2013-02-16 23:02:00,
2013-02-16 18:11:00,20.0,13.0,30.05,NW,314,7.0,11.0,75,0.00,,,0.00,,2013-02-16 23:11:00,
2013-02-16 18:21:00,20.0,14.0,30.05,WNW,303,7.0,10.0,76,0.00,,,0.00,,2013-02-16 23:21:00,
2013-02-16 18:32:00,21.0,14.0,30.06,NW,310,6.0,10.0,73,0.00,,,0.00,,2013-02-16 23:32:00,
2013-02-16 18:42:00,21.0,14.0,30.06,NW,310,6.0,10.0,73,0.00,,,0.00,,2013-02-16 23:42:00,
2013-02-16 18:52:00,21.0,10.0,30.06,West,279,8.0,12.0,63,0.00,,,0.00,,2013-02-16 23:52:00,
2013-02-16 19:02:00,20.0,11.0,30.06,NW,319,4.0,7.0,68,0.00,,,0.00,,2013-02-17 00:02:00,
2013-02-16 19:12:00,20.0,11.0,30.06,NW,319,4.0,7.0,68,0.00,,,0.00,,2013-02-17 00:12:00,
2013-02-16 19:22:00,20.0,9.0,30.07,WNW,290,7.0,13.0,62,0.00,,,0.00,,2013-02-17 00:22:00,
2013-02-16 19:32:00,20.0,9.0,30.07,WNW,301,6.0,9.0,63,0.00,,,0.00,,2013-02-17 00:32:00,
2013-02-16 19:42:00,20.0,9.0,30.07,WNW,301,6.0,9.0,63,0.00,,,0.00,,2013-02-17 00:42:00,
2013-02-16 19:52:00,20.0,9.0,30.07,WNW,301,6.0,9.0,63,0.00,,,0.00,,2013-02-17 00:52:00,
2013-02-16 20:01:00,20.0,10.0,30.08,WNW,290,7.0,10.0,65,0.00,,,0.00,,2013-02-17 01:01:00,
2013-02-16 20:11:00,20.0,10.0,30.08,WNW,290,7.0,10.0,65,0.00,,,0.00,,2013-02-17 01:11:00,
2013-02-16 20:21:00,20.0,10.0,30.08,WNW,290,7.0,10.0,65,0.00,,,0.00,,2013-02-17 01:21:00,
2013-02-16 20:32:00,18.0,10.0,30.09,WNW,301,7.0,12.0,71,0.00,,,0.00,,2013-02-17 01:32:00,
2013-02-16 20:42:00,18.0,10.0,30.09,WNW,301,7.0,12.0,71,0.00,,,0.00,,2013-02-17 01:42:00,
2013-02-16 20:52:00,18.0,11.0,30.09,NW,305,6.0,10.0,75,0.00,,,0.00,,2013-02-17 01:52:00,
2013-02-16 21:01:00,17.0,11.0,30.09,West,280,5.0,10.0,76,0.00,,,0.00,,2013-02-17 02:01:00,
2013-02-16 21:11:00,17.0,11.0,30.09,West,280,5.0,10.0,76,0.00,,,0.00,,2013-02-17 02:11:00,
2013-02-16 21:21:00,17.0,11.0,30.09,WNW,294,5.0,8.0,77,0.00,,,0.00,,2013-02-17 02:21:00,
2013-02-16 21:32:00,17.0,11.0,30.09,WNW,299,5.0,8.0,77,0.00,,,0.00,,2013-02-17 02:32:00,
2013-02-16 21:42:00,17.0,11.0,30.09,WNW,299,5.0,8.0,77,0.00,,,0.00,,2013-02-17 02:42:00,
2013-02-16 21:52:00,17.0,11.0,30.09,NW,320,6.0,9.0,76,0.00,,,0.00,,2013-02-17 02:52:00,
2013-02-16 22:02:00,17.0,11.0,30.09,WNW,290,6.0,8.0,77,0.00,,,0.00,,2013-02-17 03:02:00,
2013-02-16 22:11:00,17.0,11.0,30.09,WNW,290,6.0,8.0,77,0.00,,,0.00,,2013-02-17 03:11:00,
2013-02-16 22:21:00,17.0,11.0,30.09,WNW,298,5.0,9.0,76,0.00,,,0.00,,2013-02-17 03:21:00,
2013-02-16 22:32:00,16.0,10.0,30.10,NW,305,5.0,9.0,77,0.00,,,0.00,,2013-02-17 03:32:00,
2013-02-16 22:42:00,16.0,10.0,30.10,NW,305,5.0,9.0,77,0.00,,,0.00,,2013-02-17 03:42:00,
2013-02-16 22:51:00,16.0,10.0,30.09,WNW,300,4.0,8.0,77,0.00,,,0.00,,2013-02-17 03:51:00,
2013-02-16 23:01:00,16.0,10.0,30.09,WNW,285,5.0,10.0,78,0.00,,,0.00,,2013-02-17 04:01:00,
2013-02-16 23:11:00,16.0,11.0,30.09,WNW,288,3.0,7.0,79,0.00,,,0.00,,2013-02-17 04:11:00,
2013-02-16 23:21:00,16.0,11.0,30.09,WNW,288,3.0,7.0,79,0.00,,,0.00,,2013-02-17 04:21:00,
2013-02-16 23:32:00,16.0,11.0,30.09,West,281,4.0,6.0,80,0.00,,,0.00,,2013-02-17 04:32:00,
2013-02-16 23:42:00,16.0,11.0,30.09,West,281,4.0,6.0,80,0.00,,,0.00,,2013-02-17 04:42:00,
2013-02-16 23:51:00,15.0,10.0,30.09,WNW,300,3.0,7.0,80,0.00,,,0.00,,2013-02-17 04:51:00,